sensor_id;sensor_type;location;lat;lon;timestamp;pressure;altitude;pressure_sealevel;temperature;humidity
70954;BME280;58618;47.490;8.736;2023-05-03T00:02:39;97195.03;;;7.20;100.00
70954;BME280;58618;47.490;8.736;2023-05-03T00:05:29;97193.97;;;7.16;100.00
70954;BME280;58618;47.490;8.736;2023-05-03T00:08:16;97197.22;;;7.12;100.00
70954;BME280;58618;47.490;8.736;2023-05-03T00:11:04;97187.19;;;7.10;100.00
70954;BME280;58618;47.490;8.736;2023-05-03T00:13:51;97176.13;;;6.93;100.00
70954;BME280;58618;47.490;8.736;2023-05-03T00:16:40;97183.59;;;6.95;100.00
70954;BME280;58618;47.490;8.736;2023-05-03T00:19:27;97181.34;;;6.98;100.00
70954;BME280;58618;47.490;8.736;2023-05-03T00:22:17;97185.38;;;6.94;100.00
70954;BME280;58618;47.490;8.736;2023-05-03T00:25:06;97181.34;;;6.98;100.00
70954;BME280;58618;47.490;8.736;2023-05-03T00:27:54;97175.97;;;6.83;100.00
70954;BME280;58618;47.490;8.736;2023-05-03T00:30:42;97184.91;;;6.81;100.00
70954;BME280;58618;47.490;8.736;2023-05-03T00:33:31;97180.72;;;6.74;100.00
70954;BME280;58618;47.490;8.736;2023-05-03T00:36:18;97178.38;;;6.73;100.00
70954;BME280;58618;47.490;8.736;2023-05-03T00:39:05;97175.19;;;6.66;100.00
70954;BME280;58618;47.490;8.736;2023-05-03T00:41:55;97167.78;;;6.53;100.00
70954;BME280;58618;47.490;8.736;2023-05-03T00:44:42;97167.63;;;6.59;100.00
70954;BME280;58618;47.490;8.736;2023-05-03T00:47:30;97169.50;;;6.64;100.00
70954;BME280;58618;47.490;8.736;2023-05-03T00:50:19;97163.28;;;6.60;100.00
70954;BME280;58618;47.490;8.736;2023-05-03T00:53:06;97173.38;;;6.50;100.00
70954;BME280;58618;47.490;8.736;2023-05-03T00:55:54;97172.25;;;6.46;100.00
70954;BME280;58618;47.490;8.736;2023-05-03T00:58:41;97166.25;;;6.40;100.00
70954;BME280;58618;47.490;8.736;2023-05-03T01:01:29;97164.16;;;6.37;100.00
70954;BME280;58618;47.490;8.736;2023-05-03T01:04:18;97160.25;;;6.34;100.00
70954;BME280;58618;47.490;8.736;2023-05-03T01:07:15;97168.19;;;6.33;100.00
70954;BME280;58618;47.490;8.736;2023-05-03T01:10:20;97158.25;;;6.36;100.00
70954;BME280;58618;47.490;8.736;2023-05-03T01:13:13;97162.28;;;6.32;100.00
70954;BME280;58618;47.490;8.736;2023-05-03T01:16:09;97160.25;;;6.34;100.00
70954;BME280;58618;47.490;8.736;2023-05-03T01:19:00;97165.38;;;6.34;100.00
70954;BME280;58618;47.490;8.736;2023-05-03T01:21:55;97141.00;;;6.32;100.00
70954;BME280;58618;47.490;8.736;2023-05-03T01:27:40;97159.91;;;6.43;100.00
70954;BME280;58618;47.490;8.736;2023-05-03T01:30:29;97158.56;;;6.40;100.00
70954;BME280;58618;47.490;8.736;2023-05-03T01:33:25;97155.88;;;6.18;100.00
70954;BME280;58618;47.490;8.736;2023-05-03T01:36:21;97155.22;;;6.11;100.00
70954;BME280;58618;47.490;8.736;2023-05-03T01:39:12;97160.06;;;6.24;100.00
70954;BME280;58618;47.490;8.736;2023-05-03T01:42:00;97151.25;;;6.32;100.00
70954;BME280;58618;47.490;8.736;2023-05-03T01:44:52;97153.84;;;6.20;100.00
70954;BME280;58618;47.490;8.736;2023-05-03T01:47:39;97157.41;;;6.19;100.00
70954;BME280;58618;47.490;8.736;2023-05-03T01:50:27;97151.19;;;6.15;100.00
70954;BME280;58618;47.490;8.736;2023-05-03T01:53:14;97145.94;;;6.22;100.00
70954;BME280;58618;47.490;8.736;2023-05-03T01:56:01;97144.50;;;6.14;100.00
70954;BME280;58618;47.490;8.736;2023-05-03T01:58:49;97149.44;;;6.04;100.00
70954;BME280;58618;47.490;8.736;2023-05-03T02:01:37;97149.44;;;6.04;100.00
70954;BME280;58618;47.490;8.736;2023-05-03T02:04:24;97151.59;;;5.96;100.00
70954;BME280;58618;47.490;8.736;2023-05-03T02:07:12;97143.47;;;5.87;100.00
70954;BME280;58618;47.490;8.736;2023-05-03T02:09:59;97158.16;;;5.80;100.00
70954;BME280;58618;47.490;8.736;2023-05-03T02:12:46;97151.81;;;5.94;100.00
70954;BME280;58618;47.490;8.736;2023-05-03T02:15:34;97148.53;;;6.10;100.00
70954;BME280;58618;47.490;8.736;2023-05-03T02:18:22;97158.34;;;6.13;100.00
70954;BME280;58618;47.490;8.736;2023-05-03T02:21:09;97159.88;;;6.14;100.00
70954;BME280;58618;47.490;8.736;2023-05-03T02:23:58;97160.34;;;6.11;100.00
70954;BME280;58618;47.490;8.736;2023-05-03T02:26:45;97151.25;;;6.32;100.00
70954;BME280;58618;47.490;8.736;2023-05-03T02:29:33;97154.38;;;6.34;100.00
70954;BME280;58618;47.490;8.736;2023-05-03T02:32:20;97155.97;;;6.52;100.00
70954;BME280;58618;47.490;8.736;2023-05-03T02:35:09;97151.75;;;6.46;100.00
70954;BME280;58618;47.490;8.736;2023-05-03T02:37:56;97147.19;;;6.48;100.00
70954;BME280;58618;47.490;8.736;2023-05-03T02:40:44;97144.63;;;6.48;100.00
70954;BME280;58618;47.490;8.736;2023-05-03T02:43:31;97144.88;;;6.63;100.00
70954;BME280;58618;47.490;8.736;2023-05-03T02:46:18;97146.72;;;6.51;100.00
70954;BME280;58618;47.490;8.736;2023-05-03T02:49:05;97147.75;;;6.66;100.00
70954;BME280;58618;47.490;8.736;2023-05-03T02:51:54;97155.59;;;6.60;100.00
70954;BME280;58618;47.490;8.736;2023-05-03T02:54:41;97149.00;;;6.64;100.00
70954;BME280;58618;47.490;8.736;2023-05-03T02:57:29;97143.41;;;6.67;100.00
70954;BME280;58618;47.490;8.736;2023-05-03T03:00:16;97146.69;;;6.79;100.00
70954;BME280;58618;47.490;8.736;2023-05-03T03:03:04;97139.38;;;6.71;100.00
70954;BME280;58618;47.490;8.736;2023-05-03T03:05:51;97136.75;;;6.66;100.00
70954;BME280;58618;47.490;8.736;2023-05-03T03:08:40;97139.06;;;6.84;100.00
70954;BME280;58618;47.490;8.736;2023-05-03T03:11:27;97140.31;;;6.98;100.00
70954;BME280;58618;47.490;8.736;2023-05-03T03:14:14;97110.31;;;6.49;100.00
70954;BME280;58618;47.490;8.736;2023-05-03T03:17:06;97146.53;;;6.86;100.00
70954;BME280;58618;47.490;8.736;2023-05-03T03:19:53;97143.06;;;6.92;100.00
70954;BME280;58618;47.490;8.736;2023-05-03T03:22:41;97135.88;;;6.77;100.00
70954;BME280;58618;47.490;8.736;2023-05-03T03:25:30;97146.56;;;7.02;100.00
70954;BME280;58618;47.490;8.736;2023-05-03T03:28:17;97143.34;;;6.95;100.00
70954;BME280;58618;47.490;8.736;2023-05-03T03:31:05;97144.06;;;6.91;100.00
70954;BME280;58618;47.490;8.736;2023-05-03T03:33:52;97128.69;;;7.07;100.00
70954;BME280;58618;47.490;8.736;2023-05-03T03:36:39;97145.00;;;7.01;100.00
70954;BME280;58618;47.490;8.736;2023-05-03T03:39:26;97148.41;;;6.90;100.00
70954;BME280;58618;47.490;8.736;2023-05-03T03:42:15;97148.47;;;6.95;100.00
70954;BME280;58618;47.490;8.736;2023-05-03T03:45:03;97145.44;;;6.98;100.00
70954;BME280;58618;47.490;8.736;2023-05-03T03:47:50;97145.53;;;7.03;100.00
70954;BME280;58618;47.490;8.736;2023-05-03T03:50:38;97151.28;;;7.10;100.00
70954;BME280;58618;47.490;8.736;2023-05-03T03:53:25;97160.38;;;7.01;100.00
70954;BME280;58618;47.490;8.736;2023-05-03T03:56:12;97152.75;;;7.06;100.00
70954;BME280;58618;47.490;8.736;2023-05-03T03:59:01;97152.63;;;7.13;100.00
70954;BME280;58618;47.490;8.736;2023-05-03T04:01:48;97156.03;;;7.18;100.00
70954;BME280;58618;47.490;8.736;2023-05-03T04:04:35;97157.59;;;7.03;100.00
70954;BME280;58618;47.490;8.736;2023-05-03T04:07:22;97160.81;;;6.98;100.00
70954;BME280;58618;47.490;8.736;2023-05-03T04:10:10;97162.84;;;7.30;100.00
70954;BME280;58618;47.490;8.736;2023-05-03T04:12:57;97156.19;;;7.29;100.00
70954;BME280;58618;47.490;8.736;2023-05-03T04:15:46;97162.69;;;7.19;100.00
70954;BME280;58618;47.490;8.736;2023-05-03T04:18:33;97159.59;;;7.34;100.00
70954;BME280;58618;47.490;8.736;2023-05-03T04:21:21;97162.69;;;7.19;100.00
70954;BME280;58618;47.490;8.736;2023-05-03T04:24:08;97168.00;;;6.96;100.00
70954;BME280;58618;47.490;8.736;2023-05-03T04:26:55;97161.94;;;6.86;100.00
70954;BME280;58618;47.490;8.736;2023-05-03T04:29:43;97167.28;;;7.01;100.00
70954;BME280;58618;47.490;8.736;2023-05-03T04:32:33;97167.66;;;7.09;100.00
70954;BME280;58618;47.490;8.736;2023-05-03T04:35:22;97167.53;;;7.16;100.00
70954;BME280;58618;47.490;8.736;2023-05-03T04:38:09;97169.94;;;7.06;100.00
70954;BME280;58618;47.490;8.736;2023-05-03T04:40:56;97165.19;;;7.14;100.00
70954;BME280;58618;47.490;8.736;2023-05-03T04:43:44;97176.53;;;7.35;100.00
70954;BME280;58618;47.490;8.736;2023-05-03T04:46:31;97179.34;;;7.34;100.00
70954;BME280;58618;47.490;8.736;2023-05-03T04:49:20;97182.44;;;7.52;100.00
70954;BME280;58618;47.490;8.736;2023-05-03T04:52:07;97177.31;;;7.36;100.00
70954;BME280;58618;47.490;8.736;2023-05-03T04:54:55;97181.19;;;7.55;100.00
70954;BME280;58618;47.490;8.736;2023-05-03T04:57:42;97188.47;;;7.63;100.00
70954;BME280;58618;47.490;8.736;2023-05-03T05:00:30;97184.63;;;7.44;100.00
70954;BME280;58618;47.490;8.736;2023-05-03T05:03:18;97187.28;;;7.32;100.00
70954;BME280;58618;47.490;8.736;2023-05-03T05:06:06;97194.19;;;7.32;100.00
70954;BME280;58618;47.490;8.736;2023-05-03T05:08:55;97200.63;;;7.51;100.00
70954;BME280;58618;47.490;8.736;2023-05-03T05:11:42;97200.63;;;7.51;100.00
70954;BME280;58618;47.490;8.736;2023-05-03T05:14:30;97200.78;;;7.61;100.00
70954;BME280;58618;47.490;8.736;2023-05-03T05:17:18;97204.69;;;7.47;100.00
70954;BME280;58618;47.490;8.736;2023-05-03T05:20:06;97207.88;;;7.37;100.00
70954;BME280;58618;47.490;8.736;2023-05-03T05:22:58;97214.47;;;7.16;100.00
70954;BME280;58618;47.490;8.736;2023-05-03T05:25:45;97218.38;;;7.36;100.00
70954;BME280;58618;47.490;8.736;2023-05-03T05:28:33;97213.72;;;7.33;100.00
70954;BME280;58618;47.490;8.736;2023-05-03T05:31:21;97226.00;;;7.47;100.00
70954;BME280;58618;47.490;8.736;2023-05-03T05:34:09;97229.75;;;7.40;100.00
70954;BME280;58618;47.490;8.736;2023-05-03T05:36:56;97217.91;;;7.39;100.00
70954;BME280;58618;47.490;8.736;2023-05-03T05:39:45;97228.19;;;7.39;100.00
70954;BME280;58618;47.490;8.736;2023-05-03T05:42:32;97226.97;;;7.63;100.00
70954;BME280;58618;47.490;8.736;2023-05-03T05:45:19;97226.41;;;7.39;100.00
70954;BME280;58618;47.490;8.736;2023-05-03T05:48:07;97224.56;;;7.56;100.00
70954;BME280;58618;47.490;8.736;2023-05-03T05:50:54;97226.06;;;7.52;100.00
70954;BME280;58618;47.490;8.736;2023-05-03T05:53:41;97222.53;;;7.75;100.00
70954;BME280;58618;47.490;8.736;2023-05-03T05:56:30;97228.69;;;7.74;100.00
70954;BME280;58618;47.490;8.736;2023-05-03T05:59:17;97219.56;;;7.83;100.00
70954;BME280;58618;47.490;8.736;2023-05-03T06:02:14;97214.91;;;7.80;100.00
70954;BME280;58618;47.490;8.736;2023-05-03T06:05:03;97215.09;;;7.95;100.00
70954;BME280;58618;47.490;8.736;2023-05-03T06:07:51;97220.13;;;8.07;100.00
70954;BME280;58618;47.490;8.736;2023-05-03T06:10:38;97218.94;;;7.93;100.00
70954;BME280;58618;47.490;8.736;2023-05-03T06:13:27;97207.94;;;7.97;100.00
70954;BME280;58618;47.490;8.736;2023-05-03T06:16:14;97217.78;;;8.05;100.00
70954;BME280;58618;47.490;8.736;2023-05-03T06:19:02;97209.31;;;8.27;100.00
70954;BME280;58618;47.490;8.736;2023-05-03T06:21:50;97224.31;;;8.30;100.00
70954;BME280;58618;47.490;8.736;2023-05-03T06:24:37;97217.72;;;8.39;100.00
70954;BME280;58618;47.490;8.736;2023-05-03T06:27:24;97210.66;;;8.51;100.00
70954;BME280;58618;47.490;8.736;2023-05-03T06:30:13;97212.78;;;8.59;100.00
70954;BME280;58618;47.490;8.736;2023-05-03T06:33:00;97217.84;;;8.49;100.00
70954;BME280;58618;47.490;8.736;2023-05-03T06:35:48;97208.16;;;8.56;100.00
70954;BME280;58618;47.490;8.736;2023-05-03T06:38:35;97214.50;;;8.75;100.00
70954;BME280;58618;47.490;8.736;2023-05-03T06:41:22;97210.41;;;8.79;100.00
70954;BME280;58618;47.490;8.736;2023-05-03T06:44:10;97215.13;;;8.87;100.00
70954;BME280;58618;47.490;8.736;2023-05-03T06:46:59;97208.06;;;9.05;100.00
70954;BME280;58618;47.490;8.736;2023-05-03T06:49:46;97215.69;;;8.95;100.00
70954;BME280;58618;47.490;8.736;2023-05-03T06:52:33;97210.44;;;9.11;100.00
70954;BME280;58618;47.490;8.736;2023-05-03T06:55:21;97217.16;;;9.12;100.00
70954;BME280;58618;47.490;8.736;2023-05-03T06:58:08;97208.84;;;9.37;100.00
70954;BME280;58618;47.490;8.736;2023-05-03T07:00:56;97217.38;;;9.43;100.00
70954;BME280;58618;47.490;8.736;2023-05-03T07:03:45;97212.94;;;9.33;100.00
70954;BME280;58618;47.490;8.736;2023-05-03T07:06:32;97212.34;;;9.26;100.00
70954;BME280;58618;47.490;8.736;2023-05-03T07:09:20;97210.25;;;9.55;100.00
70954;BME280;58618;47.490;8.736;2023-05-03T07:12:07;97212.41;;;9.73;100.00
70954;BME280;58618;47.490;8.736;2023-05-03T07:14:54;97208.72;;;10.06;100.00
70954;BME280;58618;47.490;8.736;2023-05-03T07:17:42;97201.47;;;9.93;100.00
70954;BME280;58618;47.490;8.736;2023-05-03T07:20:30;97200.22;;;10.05;100.00
70954;BME280;58618;47.490;8.736;2023-05-03T07:23:18;97198.34;;;9.91;100.00
70954;BME280;58618;47.490;8.736;2023-05-03T07:26:05;97197.78;;;10.31;100.00
70954;BME280;58618;47.490;8.736;2023-05-03T07:28:52;97194.53;;;10.66;100.00
70954;BME280;58618;47.490;8.736;2023-05-03T07:31:40;97190.94;;;11.27;100.00
70954;BME280;58618;47.490;8.736;2023-05-03T07:34:27;97187.88;;;11.25;100.00
70954;BME280;58618;47.490;8.736;2023-05-03T07:37:16;97189.94;;;10.93;100.00
70954;BME280;58618;47.490;8.736;2023-05-03T07:40:05;97195.56;;;10.65;100.00
70954;BME280;58618;47.490;8.736;2023-05-03T07:42:53;97191.47;;;10.89;100.00
70954;BME280;58618;47.490;8.736;2023-05-03T07:45:40;97199.69;;;10.71;100.00
70954;BME280;58618;47.490;8.736;2023-05-03T07:48:27;97183.94;;;10.52;100.00
70954;BME280;58618;47.490;8.736;2023-05-03T07:51:14;97192.50;;;10.78;100.00
70954;BME280;58618;47.490;8.736;2023-05-03T07:54:03;97188.84;;;10.69;100.00
70954;BME280;58618;47.490;8.736;2023-05-03T07:56:51;97179.22;;;10.29;100.00
70954;BME280;58618;47.490;8.736;2023-05-03T07:59:38;97181.59;;;10.50;100.00
70954;BME280;58618;47.490;8.736;2023-05-03T08:02:25;97179.00;;;10.45;100.00
70954;BME280;58618;47.490;8.736;2023-05-03T08:05:13;97176.47;;;10.76;100.00
70954;BME280;58618;47.490;8.736;2023-05-03T08:08:00;97173.34;;;10.53;100.00
70954;BME280;58618;47.490;8.736;2023-05-03T08:10:52;97164.13;;;11.03;100.00
70954;BME280;58618;47.490;8.736;2023-05-03T08:13:39;97166.69;;;11.03;100.00
70954;BME280;58618;47.490;8.736;2023-05-03T08:16:26;97163.59;;;10.96;100.00
70954;BME280;58618;47.490;8.736;2023-05-03T08:19:14;97162.06;;;11.10;100.00
70954;BME280;58618;47.490;8.736;2023-05-03T08:22:01;97158.19;;;11.02;100.00
70954;BME280;58618;47.490;8.736;2023-05-03T08:24:49;97160.50;;;11.14;100.00
70954;BME280;58618;47.490;8.736;2023-05-03T08:27:39;97164.63;;;11.00;100.00
70954;BME280;58618;47.490;8.736;2023-05-03T08:30:26;97175.44;;;10.67;100.00
70954;BME280;58618;47.490;8.736;2023-05-03T08:33:14;97172.09;;;10.71;100.00
70954;BME280;58618;47.490;8.736;2023-05-03T08:36:01;97172.34;;;10.90;100.00
70954;BME280;58618;47.490;8.736;2023-05-03T08:38:48;97168.47;;;11.28;100.00
70954;BME280;58618;47.490;8.736;2023-05-03T08:41:38;97170.06;;;11.14;100.00
70954;BME280;58618;47.490;8.736;2023-05-03T08:44:28;97172.88;;;10.97;100.00
70954;BME280;58618;47.490;8.736;2023-05-03T08:47:15;97170.56;;;11.00;100.00
70954;BME280;58618;47.490;8.736;2023-05-03T08:50:04;97165.59;;;11.65;100.00
70954;BME280;58618;47.490;8.736;2023-05-03T08:52:51;97160.34;;;12.05;100.00
70954;BME280;58618;47.490;8.736;2023-05-03T08:55:39;97160.28;;;12.15;100.00
70954;BME280;58618;47.490;8.736;2023-05-03T08:58:27;97160.81;;;13.00;100.00
70954;BME280;58618;47.490;8.736;2023-05-03T09:01:15;97155.97;;;12.50;100.00
70954;BME280;58618;47.490;8.736;2023-05-03T09:04:03;97155.03;;;12.31;100.00
70954;BME280;58618;47.490;8.736;2023-05-03T09:07:06;97159.13;;;12.42;100.00
70954;BME280;58618;47.490;8.736;2023-05-03T09:09:53;97147.75;;;13.16;100.00
70954;BME280;58618;47.490;8.736;2023-05-03T09:12:42;97158.72;;;13.60;98.40
70954;BME280;58618;47.490;8.736;2023-05-03T09:15:30;97156.06;;;13.41;98.31
70954;BME280;58618;47.490;8.736;2023-05-03T09:18:20;97150.06;;;13.70;96.17
70954;BME280;58618;47.490;8.736;2023-05-03T09:21:17;97160.66;;;13.21;96.08
70954;BME280;58618;47.490;8.736;2023-05-03T09:24:11;97160.00;;;14.53;95.57
70954;BME280;58618;47.490;8.736;2023-05-03T09:27:01;97154.38;;;14.64;92.78
70954;BME280;58618;47.490;8.736;2023-05-03T09:30:16;97145.94;;;13.92;98.35
70954;BME280;58618;47.490;8.736;2023-05-03T09:33:04;97150.88;;;14.13;95.89
70954;BME280;58618;47.490;8.736;2023-05-03T09:35:58;97151.66;;;13.66;97.32
70954;BME280;58618;47.490;8.736;2023-05-03T09:38:46;97158.72;;;14.08;98.68
70954;BME280;58618;47.490;8.736;2023-05-03T09:41:34;97149.50;;;14.39;98.08
70954;BME280;58618;47.490;8.736;2023-05-03T09:44:39;97137.56;;;14.75;94.44
70954;BME280;58618;47.490;8.736;2023-05-03T09:47:26;97144.19;;;14.49;95.25
70954;BME280;58618;47.490;8.736;2023-05-03T09:50:14;97137.50;;;14.24;96.81
70954;BME280;58618;47.490;8.736;2023-05-03T09:53:04;97131.66;;;14.14;94.88
70954;BME280;58618;47.490;8.736;2023-05-03T09:55:52;97132.81;;;14.45;92.76
70954;BME280;58618;47.490;8.736;2023-05-03T09:58:41;97129.69;;;14.48;91.71
70954;BME280;58618;47.490;8.736;2023-05-03T10:01:29;97139.00;;;14.49;92.80
70954;BME280;58618;47.490;8.736;2023-05-03T10:04:17;97150.31;;;14.58;89.69
70954;BME280;58618;47.490;8.736;2023-05-03T10:07:10;97143.63;;;14.52;90.98
70954;BME280;58618;47.490;8.736;2023-05-03T10:09:59;97142.53;;;14.34;91.01
70954;BME280;58618;47.490;8.736;2023-05-03T10:12:47;97136.84;;;14.89;90.65
70954;BME280;58618;47.490;8.736;2023-05-03T10:15:39;97137.31;;;15.23;84.94
70954;BME280;58618;47.490;8.736;2023-05-03T10:18:31;97121.72;;;15.23;87.56
70954;BME280;58618;47.490;8.736;2023-05-03T10:21:24;97121.63;;;15.14;86.19
70954;BME280;58618;47.490;8.736;2023-05-03T10:24:17;97112.88;;;15.24;84.71
70954;BME280;58618;47.490;8.736;2023-05-03T10:27:07;97124.09;;;15.38;85.08
70954;BME280;58618;47.490;8.736;2023-05-03T10:29:54;97116.41;;;15.60;84.42
70954;BME280;58618;47.490;8.736;2023-05-03T10:32:41;97115.06;;;15.63;84.42
70954;BME280;58618;47.490;8.736;2023-05-03T10:35:29;97114.00;;;15.91;83.31
70954;BME280;58618;47.490;8.736;2023-05-03T10:38:20;97114.56;;;15.61;80.08
70954;BME280;58618;47.490;8.736;2023-05-03T10:41:08;97116.13;;;15.76;79.12
70954;BME280;58618;47.490;8.736;2023-05-03T10:43:56;97122.00;;;15.95;81.27
70954;BME280;58618;47.490;8.736;2023-05-03T10:46:44;97110.22;;;15.97;78.52
70954;BME280;58618;47.490;8.736;2023-05-03T10:49:31;97119.47;;;16.03;79.04
70954;BME280;58618;47.490;8.736;2023-05-03T10:52:44;97111.41;;;15.78;79.05
70954;BME280;58618;47.490;8.736;2023-05-03T10:55:32;97112.34;;;15.82;79.32
70954;BME280;58618;47.490;8.736;2023-05-03T10:58:20;97102.94;;;15.58;78.34
70954;BME280;58618;47.490;8.736;2023-05-03T11:01:11;97117.78;;;15.85;79.23
70954;BME280;58618;47.490;8.736;2023-05-03T11:04:02;97100.22;;;15.91;78.62
70954;BME280;58618;47.490;8.736;2023-05-03T11:06:52;97095.97;;;15.95;78.63
70954;BME280;58618;47.490;8.736;2023-05-03T11:09:41;97100.97;;;16.05;76.50
70954;BME280;58618;47.490;8.736;2023-05-03T11:12:28;97105.00;;;16.11;77.70
70954;BME280;58618;47.490;8.736;2023-05-03T11:15:16;97108.13;;;15.86;77.56
70954;BME280;58618;47.490;8.736;2023-05-03T11:18:06;97112.09;;;16.19;76.95
70954;BME280;58618;47.490;8.736;2023-05-03T11:20:53;97103.59;;;15.91;76.15
70954;BME280;58618;47.490;8.736;2023-05-03T11:23:42;97090.25;;;16.42;75.26
70954;BME280;58618;47.490;8.736;2023-05-03T11:26:34;97088.50;;;16.96;74.18
70954;BME280;58618;47.490;8.736;2023-05-03T11:29:23;97088.28;;;16.84;75.85
70954;BME280;58618;47.490;8.736;2023-05-03T11:32:11;97105.25;;;16.81;73.28
70954;BME280;58618;47.490;8.736;2023-05-03T11:35:02;97091.44;;;17.03;71.89
70954;BME280;58618;47.490;8.736;2023-05-03T11:37:50;97088.84;;;17.03;72.19
70954;BME280;58618;47.490;8.736;2023-05-03T11:40:37;97083.44;;;16.55;72.48
70954;BME280;58618;47.490;8.736;2023-05-03T11:43:26;97078.47;;;16.81;73.46
70954;BME280;58618;47.490;8.736;2023-05-03T11:46:16;97082.94;;;16.89;71.50
70954;BME280;58618;47.490;8.736;2023-05-03T11:49:05;97075.75;;;16.64;73.29
70954;BME280;58618;47.490;8.736;2023-05-03T11:51:54;97079.59;;;16.30;73.57
70954;BME280;58618;47.490;8.736;2023-05-03T11:54:42;97077.94;;;16.57;73.34
70954;BME280;58618;47.490;8.736;2023-05-03T11:57:30;97074.81;;;16.60;73.47
70954;BME280;58618;47.490;8.736;2023-05-03T12:00:19;97066.50;;;16.80;73.18
70954;BME280;58618;47.490;8.736;2023-05-03T12:03:07;97067.53;;;16.57;71.61
70954;BME280;58618;47.490;8.736;2023-05-03T12:05:55;97060.25;;;17.20;69.61
70954;BME280;58618;47.490;8.736;2023-05-03T12:08:44;97069.78;;;16.94;70.05
70954;BME280;58618;47.490;8.736;2023-05-03T12:11:39;97060.03;;;17.08;70.56
70954;BME280;58618;47.490;8.736;2023-05-03T12:14:26;97050.22;;;17.05;70.41
70954;BME280;58618;47.490;8.736;2023-05-03T12:17:13;97053.34;;;16.63;71.38
70954;BME280;58618;47.490;8.736;2023-05-03T12:20:15;97052.09;;;16.82;71.60
70954;BME280;58618;47.490;8.736;2023-05-03T12:23:03;97048.34;;;16.53;70.79
70954;BME280;58618;47.490;8.736;2023-05-03T12:25:54;97038.16;;;16.87;67.61
70954;BME280;58618;47.490;8.736;2023-05-03T12:28:41;97043.38;;;17.18;66.76
70954;BME280;58618;47.490;8.736;2023-05-03T12:31:29;97038.53;;;17.34;68.98
70954;BME280;58618;47.490;8.736;2023-05-03T12:34:16;97036.94;;;17.24;68.80
70954;BME280;58618;47.490;8.736;2023-05-03T12:37:03;97051.84;;;17.23;67.81
70954;BME280;58618;47.490;8.736;2023-05-03T12:39:50;97045.00;;;17.45;68.08
70954;BME280;58618;47.490;8.736;2023-05-03T12:42:39;97044.88;;;17.50;67.23
70954;BME280;58618;47.490;8.736;2023-05-03T12:45:26;97038.91;;;17.18;67.85
70954;BME280;58618;47.490;8.736;2023-05-03T12:48:15;97045.41;;;16.90;66.41
70954;BME280;58618;47.490;8.736;2023-05-03T12:51:03;97032.78;;;17.14;67.43
70954;BME280;58618;47.490;8.736;2023-05-03T12:53:50;97029.38;;;17.53;65.30
70954;BME280;58618;47.490;8.736;2023-05-03T12:56:37;97020.56;;;17.80;64.45
70954;BME280;58618;47.490;8.736;2023-05-03T12:59:26;97027.13;;;17.78;64.11
70954;BME280;58618;47.490;8.736;2023-05-03T13:02:13;97021.00;;;17.65;65.25
70954;BME280;58618;47.490;8.736;2023-05-03T13:05:00;97023.06;;;17.46;66.05
70954;BME280;58618;47.490;8.736;2023-05-03T13:07:48;97020.13;;;17.39;65.58
70954;BME280;58618;47.490;8.736;2023-05-03T13:10:35;97019.03;;;17.40;65.85
70954;BME280;58618;47.490;8.736;2023-05-03T13:13:23;97024.88;;;17.37;65.84
70954;BME280;58618;47.490;8.736;2023-05-03T13:16:12;97025.66;;;17.46;65.95
70954;BME280;58618;47.490;8.736;2023-05-03T13:18:59;97023.06;;;17.46;66.18
70954;BME280;58618;47.490;8.736;2023-05-03T13:21:47;97016.91;;;17.42;64.85
70954;BME280;58618;47.490;8.736;2023-05-03T13:24:34;97017.97;;;17.32;66.22
70954;BME280;58618;47.490;8.736;2023-05-03T13:27:22;97008.94;;;16.99;65.69
70954;BME280;58618;47.490;8.736;2023-05-03T13:30:10;97012.53;;;17.11;66.97
70954;BME280;58618;47.490;8.736;2023-05-03T13:32:58;96998.47;;;17.29;66.87
70954;BME280;58618;47.490;8.736;2023-05-03T13:35:45;96999.03;;;17.66;66.49
70954;BME280;58618;47.490;8.736;2023-05-03T13:38:33;97000.75;;;17.22;67.07
70954;BME280;58618;47.490;8.736;2023-05-03T13:41:21;97000.22;;;17.03;68.34
70954;BME280;58618;47.490;8.736;2023-05-03T13:44:08;96989.41;;;16.79;66.81
70954;BME280;58618;47.490;8.736;2023-05-03T13:46:56;96982.78;;;17.12;67.02
70954;BME280;58618;47.490;8.736;2023-05-03T13:49:45;96979.28;;;17.25;66.43
70954;BME280;58618;47.490;8.736;2023-05-03T13:52:32;96989.28;;;17.41;65.29
70954;BME280;58618;47.490;8.736;2023-05-03T13:55:19;96986.03;;;17.26;64.93
70954;BME280;58618;47.490;8.736;2023-05-03T13:58:07;96979.09;;;17.13;64.71
70954;BME280;58618;47.490;8.736;2023-05-03T14:00:54;96970.59;;;17.56;65.25
70954;BME280;58618;47.490;8.736;2023-05-03T14:03:42;96974.19;;;17.94;66.44
70954;BME280;58618;47.490;8.736;2023-05-03T14:06:31;96964.47;;;17.52;64.46
70954;BME280;58618;47.490;8.736;2023-05-03T14:09:18;96968.19;;;17.68;65.32
70954;BME280;58618;47.490;8.736;2023-05-03T14:12:06;96970.13;;;17.37;64.18
70954;BME280;58618;47.490;8.736;2023-05-03T14:14:54;96949.13;;;17.59;64.73
70954;BME280;58618;47.490;8.736;2023-05-03T14:17:41;96966.06;;;17.70;64.13
70954;BME280;58618;47.490;8.736;2023-05-03T14:20:28;96978.91;;;17.66;64.61
70954;BME280;58618;47.490;8.736;2023-05-03T14:23:17;96961.75;;;17.74;64.65
70954;BME280;58618;47.490;8.736;2023-05-03T14:26:04;96956.22;;;17.67;62.33
70954;BME280;58618;47.490;8.736;2023-05-03T14:28:52;96952.16;;;17.26;62.39
70954;BME280;58618;47.490;8.736;2023-05-03T14:31:39;96952.63;;;17.37;63.80
70954;BME280;58618;47.490;8.736;2023-05-03T14:34:27;96941.19;;;17.64;62.32
70954;BME280;58618;47.490;8.736;2023-05-03T14:37:14;96944.25;;;17.83;61.74
70954;BME280;58618;47.490;8.736;2023-05-03T14:40:04;96941.16;;;17.98;63.02
70954;BME280;58618;47.490;8.736;2023-05-03T14:42:51;96945.81;;;17.76;63.56
70954;BME280;58618;47.490;8.736;2023-05-03T14:45:38;96945.47;;;17.77;63.84
70954;BME280;58618;47.490;8.736;2023-05-03T14:48:26;96944.41;;;17.78;62.84
70954;BME280;58618;47.490;8.736;2023-05-03T14:51:13;96942.09;;;17.68;62.16
70954;BME280;58618;47.490;8.736;2023-05-03T14:54:01;96944.56;;;17.90;61.78
70954;BME280;58618;47.490;8.736;2023-05-03T14:56:49;96951.56;;;17.47;63.12